Terminal Aerodrome Forecast
Issued by NWS Cleveland, OH

Home | Current Version | Previous Version | Text Only | Print | Product List | Glossary Off
Versions: 1 2 3 4 5 6 7 8 9 10 11 12 13 14 15 16 17 18

010
FTUS41 KCLE 231730
TAFTOL
TAF
KTOL 231730Z 2318/2418 36007KT P6SM SCT050 OVC100
     FM232200 04010G18KT P6SM SCT025 OVC050
     FM240200 04008KT P6SM BKN012
     FM241600 05008KT P6SM BKN025=

USA.gov is the U.S. government's official web portal to all federal, state and local government web resources and services.